York Harbor, Maine
Current Conditions -  °F | °C
As of 8:58 AM on Monday 22 Dec 2014 (Local Time) from KPSM Reporting Station
Overcast Overcast  
Wind Chill: -3°   Ceiling: 5000
Heat Index:   Visibility: 10mi
Dew Point: -3°   Wind: 6mph
Humidity: 75%   Direction: 20°NNE
Pressure: 30.39"   Gusts: NA
Location:  43.14°N, 70.65°W
Report Text: KPSM 221358Z 02005KT 10SM OVC050 01/M03 A3039 RMK AO2A SLP296 T00051034
Loading
Personal Weather Stations






























Interactive Weather Map New forecast layout! Learn more

10-Day Weather Forecast

Advertisements
Track Severe Weather on mobile